Time;durP1;ratioP1;P1;durP2;ratioP2;P2;SDS_P1;SDS_P2;PMS_P1;PMS_P2;Temp;Humidity;BMP_temperature;BMP_pressure;BME280_temperature;BME280_humidity;BME280_pressure;Samples;Min_cycle;Max_cycle;Signal;HPM_P1;HPM_P2
2023/10/22 00:00:52;;;;;;;;;0.00;0.00;;;;;13.13;66.79;99657.97;5088338;27;45910;-75
2023/10/22 00:03:17;;;;;;;;;1.00;0.50;;;;;12.94;66.72;99628.16;5085494;27;45638;-75
2023/10/22 00:05:43;;;;;;;;;1.00;1.00;;;;;12.83;66.25;99615.00;5087007;27;45496;-75
2023/10/22 00:08:08;;;;;;;;;1.00;0.25;;;;;13.07;66.44;99658.81;5088006;27;46018;-76
2023/10/22 00:10:34;;;;;;;;;0.50;0.00;;;;;12.92;66.22;99646.47;5086523;27;45511;-74
2023/10/22 00:12:59;;;;;;;;;0.00;0.00;;;;;13.06;66.21;99667.53;5088732;27;45431;-75
2023/10/22 00:15:25;;;;;;;;;1.00;0.00;;;;;12.61;66.16;99600.84;5087381;27;45373;-76
2023/10/22 00:17:51;;;;;;;;;1.00;1.00;;;;;12.84;66.97;99669.16;5087484;27;45379;-75
2023/10/22 00:20:17;;;;;;;;;1.00;1.00;;;;;12.64;67.57;99662.91;5088727;27;46154;-75
2023/10/22 00:22:42;;;;;;;;;0.25;0.00;;;;;12.69;67.85;99669.94;5086746;27;45464;-75
2023/10/22 00:25:09;;;;;;;;;1.50;0.75;;;;;12.68;68.17;99668.16;5087590;27;45459;-76
2023/10/22 00:27:34;;;;;;;;;1.00;0.00;;;;;12.68;67.81;99664.69;5088742;27;45512;-75
2023/10/22 00:30:00;;;;;;;;;1.75;1.00;;;;;12.70;66.87;99669.06;5086169;27;45345;-75
2023/10/22 00:32:26;;;;;;;;;0.00;0.00;;;;;12.62;66.98;99651.53;5086289;27;45559;-75
2023/10/22 00:34:53;;;;;;;;;2.00;1.00;;;;;12.46;67.42;99638.31;5088227;27;45390;-75
2023/10/22 00:37:18;;;;;;;;;0.00;0.00;;;;;11.87;67.89;99540.03;5086635;27;45582;-75
2023/10/22 00:39:44;;;;;;;;;0.25;0.00;;;;;12.59;67.36;99667.22;5087943;27;45582;-75
2023/10/22 00:42:10;;;;;;;;;0.00;0.00;;;;;12.38;67.06;99632.13;5087445;27;45685;-75
2023/10/22 00:44:36;;;;;;;;;1.00;0.25;;;;;12.54;67.54;99667.19;5086144;27;45519;-75
2023/10/22 00:47:04;;;;;;;;;0.00;0.00;;;;;12.59;66.86;99670.72;5087599;27;45468;-75
2023/10/22 00:49:29;;;;;;;;;1.00;0.00;;;;;12.63;66.89;99669.00;5087306;27;45409;-75
2023/10/22 00:51:56;;;;;;;;;0.25;0.25;;;;;12.66;66.32;99661.16;5085987;27;45334;-75
2023/10/22 00:54:24;;;;;;;;;0.00;0.00;;;;;12.64;66.52;99658.53;5083681;27;45475;-75
2023/10/22 00:56:51;;;;;;;;;1.00;0.00;;;;;12.46;66.06;99638.31;5086785;27;45382;-76
2023/10/22 00:59:18;;;;;;;;;1.75;1.00;;;;;12.61;66.40;99658.50;5087984;27;45423;-75
2023/10/22 01:01:44;;;;;;;;;0.00;0.00;;;;;12.61;66.34;99660.25;5085286;27;45442;-75
2023/10/22 01:04:10;;;;;;;;;0.00;0.00;;;;;12.57;65.84;99648.00;5086788;27;45297;-75
2023/10/22 01:06:36;;;;;;;;;0.00;0.00;;;;;12.62;65.86;99654.16;5088075;27;45547;-74
2023/10/22 01:09:02;;;;;;;;;0.50;0.00;;;;;12.66;65.24;99658.56;5085891;27;45578;-74
2023/10/22 01:11:28;;;;;;;;;0.25;0.00;;;;;12.55;64.73;99632.25;5086740;27;46246;-74
2023/10/22 01:13:54;;;;;;;;;1.00;0.00;;;;;12.70;62.94;99641.97;5087625;27;45615;-74
2023/10/22 01:16:19;;;;;;;;;0.25;0.25;;;;;12.86;62.40;99654.31;5086136;27;45507;-74
2023/10/22 01:18:45;;;;;;;;;0.00;0.00;;;;;12.91;61.78;99659.56;5087366;27;45992;-74
2023/10/22 01:21:11;;;;;;;;;0.00;0.00;;;;;12.89;61.31;99645.59;5086933;27;45557;-74
2023/10/22 01:23:39;;;;;;;;;0.00;0.00;;;;;13.04;61.24;99650.91;5084371;27;45550;-75
2023/10/22 01:26:09;;;;;;;;;0.00;0.00;;;;;12.94;61.03;99618.53;5087060;27;45282;-74
2023/10/22 01:28:35;;;;;;;;;0.00;0.00;;;;;13.11;61.00;99646.56;5087536;27;46004;-75
2023/10/22 01:31:01;;;;;;;;;0.00;0.00;;;;;13.17;60.74;99648.34;5082560;27;45603;-74
2023/10/22 01:33:27;;;;;;;;;0.00;0.00;;;;;13.09;60.43;99624.72;5086635;27;45519;-74
2023/10/22 01:35:52;;;;;;;;;0.00;0.00;;;;;13.06;60.35;99616.84;5087072;27;45524;-75
2023/10/22 01:38:18;;;;;;;;;0.00;0.00;;;;;13.18;60.20;99639.63;5085821;27;46040;-75
2023/10/22 01:40:44;;;;;;;;;0.00;0.00;;;;;13.29;60.18;99633.59;5087120;27;45372;-75
2023/10/22 01:43:09;;;;;;;;;0.50;0.00;;;;;13.36;59.74;99631.00;5086787;27;45600;-75
2023/10/22 01:45:35;;;;;;;;;0.00;0.00;;;;;13.38;59.87;99626.63;5085727;27;45395;-75
2023/10/22 01:48:00;;;;;;;;;0.00;0.00;;;;;13.40;59.75;99632.78;5094131;27;46104;-75
2023/10/22 01:50:26;;;;;;;;;0.00;0.00;;;;;13.27;59.33;99606.47;5097782;27;45456;-75
2023/10/22 01:52:52;;;;;;;;;0.00;0.00;;;;;13.42;59.01;99638.91;5097909;27;45440;-75
2023/10/22 01:55:18;;;;;;;;;0.00;0.00;;;;;13.46;58.87;99635.41;5098143;27;45447;-76
2023/10/22 01:57:44;;;;;;;;;0.00;0.00;;;;;13.37;58.62;99619.63;5096129;27;45417;-75
2023/10/22 02:00:13;;;;;;;;;0.00;0.00;;;;;13.51;58.70;99644.19;5099227;27;45408;-75
2023/10/22 02:02:39;;;;;;;;;0.50;0.00;;;;;13.30;58.84;99600.38;5101531;27;45346;-75
2023/10/22 02:05:05;;;;;;;;;0.00;0.00;;;;;13.50;59.32;99632.78;5100006;27;45437;-75
2023/10/22 02:07:31;;;;;;;;;0.00;0.00;;;;;13.51;59.45;99645.06;5101215;27;45597;-75
2023/10/22 02:09:57;;;;;;;;;0.00;0.00;;;;;13.47;59.55;99637.19;5101511;27;45339;-75
2023/10/22 02:12:29;;;;;;;;;0.00;0.00;;;;;13.43;59.24;99641.53;5101350;27;45396;-75
2023/10/22 02:14:54;;;;;;;;;0.00;0.00;;;;;13.40;59.18;99633.63;5101617;27;45429;-75
2023/10/22 02:17:20;;;;;;;;;0.00;0.00;;;;;13.18;59.67;99593.31;5101266;27;45223;-75
2023/10/22 02:19:45;;;;;;;;;0.00;0.00;;;;;13.26;59.49;99603.81;5101110;27;46143;-75
2023/10/22 02:22:12;;;;;;;;;0.00;0.00;;;;;13.44;60.03;99634.53;5102665;27;45514;-75
2023/10/22 02:24:39;;;;;;;;;0.00;0.00;;;;;13.41;60.57;99629.25;5100843;27;45588;-75
2023/10/22 02:27:05;;;;;;;;;0.00;0.00;;;;;12.83;60.78;99543.31;5100522;27;45619;-75
2023/10/22 02:29:31;;;;;;;;;0.00;0.00;;;;;13.17;60.78;99603.78;5100716;27;45318;-75
2023/10/22 02:31:56;;;;;;;;;1.00;0.00;;;;;13.31;60.84;99631.00;5100752;27;45397;-75
2023/10/22 02:34:22;;;;;;;;;1.00;0.00;;;;;13.27;60.80;99627.44;5101039;27;45425;-75
2023/10/22 02:36:48;;;;;;;;;0.00;0.00;;;;;13.23;60.99;99624.78;5100764;27;45467;-75
2023/10/22 02:39:13;;;;;;;;;1.00;0.00;;;;;13.18;61.59;99634.41;5100514;27;45308;-76
2023/10/22 02:41:39;;;;;;;;;0.00;0.00;;;;;13.00;61.95;99616.81;5097133;27;45662;-75
2023/10/22 02:44:04;;;;;;;;;0.00;0.00;;;;;13.05;61.44;99628.19;5079285;28;45428;-75
2023/10/22 02:46:30;;;;;;;;;1.00;0.00;;;;;13.06;61.51;99620.34;5079085;27;46134;-76
2023/10/22 02:48:58;;;;;;;;;0.00;0.00;;;;;12.84;61.25;99590.53;5079559;27;45374;-76
2023/10/22 02:51:23;;;;;;;;;0.50;0.00;;;;;12.82;61.46;99581.78;5079462;27;45353;-76
2023/10/22 02:53:49;;;;;;;;;0.50;0.50;;;;;13.07;61.64;99613.34;5079028;28;45528;-75
2023/10/22 02:56:15;;;;;;;;;1.50;0.25;;;;;13.12;61.42;99614.25;5077817;27;47495;-75
2023/10/22 02:58:41;;;;;;;;;0.00;0.00;;;;;12.87;61.89;99590.56;5079458;28;45500;-76
2023/10/22 03:01:09;;;;;;;;;0.00;0.00;;;;;12.88;61.75;99605.41;5079155;27;45380;-76
2023/10/22 03:03:39;;;;;;;;;0.00;0.00;;;;;13.04;61.39;99610.72;5079611;27;45432;-76
2023/10/22 03:06:07;;;;;;;;;0.00;0.00;;;;;13.06;60.43;99590.63;5079005;28;46136;-76
2023/10/22 03:08:34;;;;;;;;;0.00;0.00;;;;;13.06;60.15;99567.03;5078086;28;45425;-76
2023/10/22 03:11:00;;;;;;;;;0.00;0.00;;;;;13.29;59.20;99602.13;5078859;27;45400;-76
2023/10/22 03:13:26;;;;;;;;;0.00;0.00;;;;;13.28;59.00;99592.47;5079534;27;45427;-75
2023/10/22 03:15:51;;;;;;;;;0.00;0.00;;;;;13.35;58.50;99587.28;5079361;27;45899;-76
2023/10/22 03:18:17;;;;;;;;;0.00;0.00;;;;;13.52;58.32;99617.94;5079108;27;45452;-76
2023/10/22 03:20:42;;;;;;;;;0.00;0.00;;;;;13.43;57.79;99586.44;5077738;28;45503;-75
2023/10/22 03:23:08;;;;;;;;;0.00;0.00;;;;;13.60;57.28;99607.47;5079367;27;45391;-76
2023/10/22 03:25:34;;;;;;;;;0.00;0.00;;;;;13.69;57.49;99614.50;5078856;27;46592;-76
2023/10/22 03:28:03;;;;;;;;;0.50;0.00;;;;;13.48;57.11;99568.06;5078740;27;45299;-76
2023/10/22 03:30:28;;;;;;;;;0.25;0.00;;;;;13.52;56.99;99564.59;5079080;27;45337;-75
2023/10/22 03:32:56;;;;;;;;;0.00;0.00;;;;;13.56;57.24;99571.59;5079390;27;45516;-76
2023/10/22 03:35:22;;;;;;;;;0.00;0.00;;;;;13.53;57.20;99571.59;5079046;27;45412;-75
2023/10/22 03:37:48;;;;;;;;;1.00;0.00;;;;;13.78;56.51;99608.38;5078736;27;45319;-76
2023/10/22 03:40:13;;;;;;;;;0.00;0.00;;;;;13.73;56.43;99593.50;5079085;27;45492;-75
2023/10/22 03:42:39;;;;;;;;;0.00;0.00;;;;;13.79;56.63;99599.66;5079216;27;45236;-75
2023/10/22 03:45:07;;;;;;;;;0.00;0.00;;;;;13.75;56.32;99600.50;5078597;27;46272;-75
2023/10/22 03:47:33;;;;;;;;;0.00;0.00;;;;;13.70;56.43;99590.00;5078760;27;45412;-76
2023/10/22 03:49:58;;;;;;;;;0.75;0.00;;;;;13.79;56.40;99608.41;5078670;27;45350;-76
2023/10/22 03:52:25;;;;;;;;;0.00;0.00;;;;;13.78;56.80;99608.38;5079161;27;45341;-76
2023/10/22 03:54:50;;;;;;;;;0.00;0.00;;;;;13.76;56.89;99608.38;5078444;27;45567;-76
2023/10/22 03:57:16;;;;;;;;;0.00;0.00;;;;;13.19;57.23;99508.53;5078529;27;45242;-75
2023/10/22 03:59:41;;;;;;;;;0.00;0.00;;;;;13.74;57.38;99604.88;5078504;27;45238;-76
2023/10/22 04:02:07;;;;;;;;;0.00;0.00;;;;;13.58;57.56;99593.47;5079022;28;45557;-75
2023/10/22 04:04:32;;;;;;;;;0.00;0.00;;;;;13.67;56.80;99603.13;5078083;28;46221;-76
2023/10/22 04:06:58;;;;;;;;;0.25;0.00;;;;;13.52;56.65;99572.47;5078150;27;45281;-75
2023/10/22 04:09:23;;;;;;;;;0.00;0.00;;;;;13.52;56.32;99570.69;5078684;27;45232;-76
2023/10/22 04:11:49;;;;;;;;;0.00;0.00;;;;;13.72;56.88;99611.88;5078659;27;45449;-76
2023/10/22 04:14:16;;;;;;;;;0.00;0.00;;;;;13.66;56.77;99610.09;5078174;27;45877;-76
2023/10/22 04:16:41;;;;;;;;;0.00;0.00;;;;;13.56;56.72;99592.59;5078122;28;45523;-76
2023/10/22 04:19:07;;;;;;;;;0.00;0.00;;;;;13.60;57.42;99615.34;5078150;27;45531;-76
2023/10/22 04:21:33;;;;;;;;;0.00;0.00;;;;;13.32;57.50;99572.41;5078155;27;45497;-76
2023/10/22 04:23:58;;;;;;;;;0.00;0.00;;;;;13.54;58.10;99604.81;5077390;27;45488;-76
2023/10/22 04:26:24;;;;;;;;;0.00;0.00;;;;;13.47;58.28;99614.44;5078166;27;45438;-76
2023/10/22 04:28:49;;;;;;;;;1.25;0.00;;;;;13.36;57.82;99592.53;5078243;27;45271;-75
2023/10/22 04:31:15;;;;;;;;;0.00;0.00;;;;;13.26;57.84;99574.97;5078411;27;45466;-75
2023/10/22 04:33:41;;;;;;;;;0.00;0.00;;;;;13.38;57.63;99588.16;5077779;27;45368;-75
2023/10/22 04:36:15;;;;;;;;;0.00;0.00;;;;;13.48;57.03;99599.56;5077994;27;45509;-75
2023/10/22 04:38:41;;;;;;;;;0.00;0.00;;;;;13.42;56.68;99578.56;5076746;28;45571;-76
2023/10/22 04:41:12;;;;;;;;;0.00;0.00;;;;;13.46;56.04;99570.69;5078021;27;45227;-75
2023/10/22 04:43:38;;;;;;;;;0.00;0.00;;;;;13.73;56.11;99617.13;5077741;27;45812;-75
2023/10/22 04:46:04;;;;;;;;;0.00;0.00;;;;;13.78;55.86;99613.63;5077506;27;46113;-76
2023/10/22 04:48:31;;;;;;;;;0.00;0.00;;;;;13.82;55.55;99608.38;5078025;27;45317;-75
2023/10/22 04:50:59;;;;;;;;;0.00;0.00;;;;;13.86;55.74;99609.28;5078382;27;45213;-76
2023/10/22 04:53:25;;;;;;;;;0.50;0.00;;;;;13.90;55.47;99605.78;5076623;28;45571;-75
2023/10/22 04:55:56;;;;;;;;;0.50;0.00;;;;;13.31;55.47;99502.47;5076688;27;45508;-75
2023/10/22 04:58:23;;;;;;;;;0.00;0.00;;;;;13.95;55.26;99609.28;5076690;27;45598;-75
2023/10/22 05:00:49;;;;;;;;;0.00;0.00;;;;;13.73;55.29;99569.00;5076791;27;45634;-75
2023/10/22 05:03:15;;;;;;;;;0.00;0.00;;;;;13.92;55.11;99596.16;5076572;28;46208;-76
2023/10/22 05:05:41;;;;;;;;;0.00;0.00;;;;;13.97;55.36;99604.91;5083163;27;45370;-75
2023/10/22 05:08:09;;;;;;;;;0.75;0.75;;;;;13.99;55.08;99600.53;5076029;27;45492;-75
2023/10/22 05:10:38;;;;;;;;;0.00;0.00;;;;;13.99;55.50;99603.16;5076780;28;45251;-75
2023/10/22 05:13:08;;;;;;;;;0.00;0.00;;;;;13.48;55.45;99507.72;5076656;27;45689;-75
2023/10/22 05:15:34;;;;;;;;;0.00;0.00;;;;;13.54;55.62;99531.34;5074388;28;45560;-75
2023/10/22 05:18:04;;;;;;;;;0.00;0.00;;;;;13.95;55.62;99609.28;5076695;27;45595;-75
2023/10/22 05:20:30;;;;;;;;;0.00;0.00;;;;;13.92;57.35;99610.13;5074456;28;45487;-75
2023/10/22 05:22:57;;;;;;;;;0.00;0.00;;;;;13.91;57.48;99604.91;5076624;28;45676;-76
2023/10/22 05:25:22;;;;;;;;;0.00;0.00;;;;;13.88;57.48;99610.16;5076640;27;45486;-75
2023/10/22 05:27:48;;;;;;;;;1.00;0.00;;;;;13.75;57.75;99618.84;5076244;27;45286;-76
2023/10/22 05:30:15;;;;;;;;;0.00;0.00;;;;;13.69;58.04;99604.88;5076434;27;45395;-75
2023/10/22 05:32:41;;;;;;;;;0.00;0.00;;;;;13.64;57.03;99574.22;5076407;28;45366;-75
2023/10/22 05:35:07;;;;;;;;;0.00;0.00;;;;;13.89;57.49;99617.16;5079220;27;45386;-75
2023/10/22 05:37:33;;;;;;;;;3.00;1.25;;;;;13.89;57.16;99611.91;5080104;27;45343;-75
2023/10/22 05:39:59;;;;;;;;;2.50;2.00;;;;;13.93;56.74;99611.03;5080406;27;45355;-75
2023/10/22 05:42:25;;;;;;;;;1.00;0.00;;;;;13.96;56.20;99607.53;5079562;27;45463;-75
2023/10/22 05:44:51;;;;;;;;;1.00;0.00;;;;;13.61;56.06;99564.63;5079502;28;45682;-75
2023/10/22 05:47:17;;;;;;;;;0.00;0.00;;;;;13.79;55.93;99589.16;5079861;27;45269;-75
2023/10/22 05:49:43;;;;;;;;;0.00;0.00;;;;;13.71;55.18;99548.00;5078524;27;45366;-75
2023/10/22 05:52:09;;;;;;;;;0.00;0.00;;;;;13.93;54.93;99580.41;5077974;28;46540;-76
2023/10/22 05:54:36;;;;;;;;;0.25;0.25;;;;;14.02;54.99;99587.41;5079399;27;45322;-75
2023/10/22 05:57:02;;;;;;;;;0.00;0.00;;;;;14.04;54.90;99600.53;5079978;27;45379;-75
2023/10/22 05:59:28;;;;;;;;;0.00;0.00;;;;;13.94;55.12;99583.91;5079368;28;45478;-75
2023/10/22 06:01:54;;;;;;;;;1.00;0.00;;;;;14.09;55.17;99591.78;5079176;28;46314;-75
2023/10/22 06:04:19;;;;;;;;;0.00;0.00;;;;;14.15;55.10;99603.19;5078588;28;45398;-75
2023/10/22 06:06:45;;;;;;;;;0.00;0.00;;;;;14.04;54.56;99576.91;5079483;27;45436;-76
2023/10/22 06:09:12;;;;;;;;;0.75;0.75;;;;;14.25;54.55;99603.16;5080366;28;45496;-76
2023/10/22 06:11:38;;;;;;;;;0.00;0.00;;;;;14.07;53.98;99564.66;5079591;27;46202;-76
2023/10/22 06:14:05;;;;;;;;;0.00;0.00;;;;;13.98;53.94;99548.88;5079848;27;45433;-76
2023/10/22 06:16:33;;;;;;;;;0.00;0.00;;;;;14.36;53.67;99607.53;5080389;27;45415;-76
2023/10/22 06:18:59;;;;;;;;;0.00;0.00;;;;;14.36;53.87;99599.66;5080616;28;45460;-76
2023/10/22 06:21:25;;;;;;;;;0.00;0.00;;;;;14.50;53.25;99613.66;5078678;28;46291;-75
2023/10/22 06:23:51;;;;;;;;;0.00;0.00;;;;;14.53;53.11;99611.91;5079979;27;45483;-75
2023/10/22 06:26:17;;;;;;;;;0.00;0.00;;;;;14.51;53.22;99604.91;5080023;27;45255;-76
2023/10/22 06:28:43;;;;;;;;;0.00;0.00;;;;;14.29;52.75;99575.16;5079984;27;45248;-75
2023/10/22 06:31:13;;;;;;;;;0.00;0.00;;;;;14.61;52.65;99616.31;5079851;28;45974;-75
2023/10/22 06:33:40;;;;;;;;;1.75;1.50;;;;;13.89;54.01;99501.66;5078473;27;45323;-75
2023/10/22 06:36:22;;;;;;;;;7.50;7.50;;;;;14.49;54.02;99599.66;5079723;27;45523;-75
2023/10/22 06:38:49;;;;;;;;;0.00;0.00;;;;;14.66;54.50;99630.31;5080205;27;45318;-76
2023/10/22 06:41:16;;;;;;;;;1.00;1.00;;;;;14.67;54.47;99632.09;5079612;27;46060;-75
2023/10/22 06:43:43;;;;;;;;;0.50;0.50;;;;;14.59;53.95;99600.56;5079506;27;45440;-77
2023/10/22 06:46:09;;;;;;;;;0.00;0.00;;;;;14.76;54.17;99624.16;5094434;27;45298;-75
2023/10/22 06:48:35;;;;;;;;;3.00;3.00;;;;;14.73;54.69;99628.56;5079890;27;45252;-76
2023/10/22 06:51:02;;;;;;;;;1.00;0.25;;;;;14.39;54.60;99595.28;5079605;27;46075;-75
2023/10/22 06:53:29;;;;;;;;;0.25;0.00;;;;;14.35;55.06;99583.03;5079781;27;45385;-75
2023/10/22 06:55:54;;;;;;;;;0.00;0.00;;;;;14.68;54.77;99631.19;5079824;27;45239;-76
2023/10/22 06:58:20;;;;;;;;;2.50;1.50;;;;;14.60;55.03;99604.91;5079546;27;45262;-75
2023/10/22 07:00:46;;;;;;;;;8.00;7.25;;;;;14.79;54.67;99625.94;5077206;27;45299;-74
2023/10/22 07:03:11;;;;;;;;;4.75;4.00;;;;;14.78;54.48;99614.56;5077494;28;45507;-75
2023/10/22 07:05:37;;;;;;;;;4.50;3.00;;;;;14.96;54.60;99636.41;5078513;28;45548;-78
2023/10/22 07:08:03;;;;;;;;;1.00;1.00;;;;;14.91;52.98;99624.13;5077571;27;45533;-77
2023/10/22 07:10:28;;;;;;;;;1.00;1.00;;;;;15.02;53.48;99612.72;5078247;27;45523;-76
2023/10/22 07:12:54;;;;;;;;;2.25;2.25;;;;;15.21;53.78;99624.06;5078312;27;45490;-77
2023/10/22 07:15:19;;;;;;;;;1.25;1.00;;;;;15.27;53.31;99635.44;5078547;27;45495;-76
2023/10/22 07:17:47;;;;;;;;;0.50;0.50;;;;;15.16;53.45;99613.56;5078540;27;45516;-77
2023/10/22 07:20:12;;;;;;;;;2.00;2.00;;;;;15.34;53.47;99625.78;5077976;27;46319;-77
2023/10/22 07:22:38;;;;;;;;;1.00;0.00;;;;;15.44;52.80;99637.13;5078113;27;45453;-74
2023/10/22 07:25:04;;;;;;;;;1.00;1.00;;;;;15.35;52.72;99595.06;5078074;27;45603;-75
2023/10/22 07:27:30;;;;;;;;;2.00;2.00;;;;;15.70;52.47;99635.22;5073994;28;45561;-76
2023/10/22 07:29:56;;;;;;;;;1.00;0.00;;;;;15.64;52.35;99627.38;5078056;28;45333;-75
2023/10/22 07:32:21;;;;;;;;;1.00;1.00;;;;;15.63;52.11;99598.41;5078103;28;45421;-74
2023/10/22 07:34:47;;;;;;;;;0.67;0.00;;;;;15.86;52.22;99624.66;5077786;27;45456;-73
2023/10/22 07:37:14;;;;;;;;;1.00;1.00;;;;;15.92;51.87;99629.88;5077231;28;45383;-74
2023/10/22 07:39:40;;;;;;;;;0.00;0.00;;;;;16.04;51.86;99634.19;5077451;27;46483;-74
2023/10/22 07:42:05;;;;;;;;;1.75;1.75;;;;;16.11;50.80;99638.50;5077297;27;45574;-74
2023/10/22 07:44:31;;;;;;;;;2.00;1.33;;;;;16.25;50.78;99633.16;5077531;27;45560;-74
2023/10/22 07:46:57;;;;;;;;;6.00;6.00;;;;;16.28;50.87;99622.59;5076185;28;45945;-74
2023/10/22 07:49:23;;;;;;;;;2.00;1.25;;;;;16.42;50.55;99635.66;5076276;27;45581;-75
2023/10/22 07:51:48;;;;;;;;;3.00;2.75;;;;;16.41;51.19;99636.53;5076089;27;45623;-76
2023/10/22 07:54:14;;;;;;;;;2.00;2.00;;;;;16.49;50.92;99638.22;5093674;27;45598;-75
2023/10/22 07:56:40;;;;;;;;;3.75;3.75;;;;;16.42;51.34;99633.88;5077616;28;45413;-74
2023/10/22 07:59:05;;;;;;;;;1.00;1.00;;;;;16.28;51.51;99583.06;5077880;28;45535;-75
2023/10/22 08:01:31;;;;;;;;;1.00;1.00;;;;;16.40;51.73;99604.03;5076320;27;45437;-76
2023/10/22 08:03:56;;;;;;;;;2.00;2.00;;;;;16.81;51.76;99642.38;5076152;28;45531;-76
2023/10/22 08:06:22;;;;;;;;;1.00;1.00;;;;;16.70;51.45;99612.53;5077490;27;45624;-75
2023/10/22 08:08:48;;;;;;;;;1.00;1.00;;;;;16.95;50.82;99641.31;5077481;27;45641;-74
2023/10/22 08:11:13;;;;;;;;;2.00;1.00;;;;;17.02;50.64;99633.34;5077072;27;45413;-75
2023/10/22 08:13:39;;;;;;;;;2.00;2.00;;;;;17.15;50.22;99634.09;5076840;27;45432;-75
2023/10/22 08:16:06;;;;;;;;;3.00;2.33;;;;;17.16;50.24;99611.19;5077276;27;45487;-74
2023/10/22 08:18:33;;;;;;;;;1.00;1.00;;;;;17.24;51.30;99630.44;5073207;28;46543;-73
2023/10/22 08:21:06;;;;;;;;;3.00;2.00;;;;;17.36;51.38;99629.44;5076738;28;45425;-74
2023/10/22 08:23:32;;;;;;;;;2.00;1.67;;;;;17.31;50.74;99637.41;5077179;27;45542;-73
2023/10/22 08:25:58;;;;;;;;;0.00;0.00;;;;;17.35;51.50;99632.94;5077029;27;45478;-74
2023/10/22 08:28:24;;;;;;;;;0.67;0.67;;;;;17.44;51.60;99627.56;5076935;27;46451;-74
2023/10/22 08:30:50;;;;;;;;;1.00;0.00;;;;;17.53;50.85;99624.81;5076808;27;45501;-76
2023/10/22 08:33:16;;;;;;;;;1.00;1.00;;;;;17.61;50.50;99620.31;5076838;27;45314;-76
2023/10/22 08:35:42;;;;;;;;;1.00;1.00;;;;;17.54;49.55;99600.13;5076510;28;45464;-76
2023/10/22 08:38:08;;;;;;;;;1.00;0.00;;;;;17.64;49.49;99606.19;5077383;27;45495;-75
2023/10/22 08:40:37;;;;;;;;;0.00;0.00;;;;;17.68;49.28;99584.97;5076007;27;45408;-76
2023/10/22 08:43:06;;;;;;;;;0.33;0.00;;;;;18.13;49.15;99623.13;5077328;27;45265;-76
2023/10/22 08:45:31;;;;;;;;;2.00;1.00;;;;;18.33;48.73;99620.16;5077374;27;45682;-77
2023/10/22 08:48:01;;;;;;;;;0.33;0.33;;;;;18.32;46.66;99598.09;5077160;28;45587;-77
2023/10/22 08:50:28;;;;;;;;;1.00;1.00;;;;;18.66;46.62;99614.28;5077446;27;45364;-77
2023/10/22 08:52:53;;;;;;;;;1.00;1.00;;;;;18.82;46.77;99616.66;5076836;27;45550;-77
2023/10/22 08:55:21;;;;;;;;;1.00;1.00;;;;;18.58;44.83;99568.59;5076787;28;45623;-77
2023/10/22 08:57:47;;;;;;;;;1.00;1.00;;;;;19.02;45.09;99610.97;5077603;27;46199;-78
2023/10/22 09:00:14;;;;;;;;;1.00;1.00;;;;;18.95;45.11;99583.78;5075948;27;45467;-77
2023/10/22 09:02:43;;;;;;;;;1.00;1.00;;;;;19.30;44.79;99610.44;5077531;28;45397;-77
2023/10/22 09:05:08;;;;;;;;;0.67;0.00;;;;;19.43;45.00;99596.03;5077482;27;45551;-77
2023/10/22 09:07:54;;;;;;;;;3.00;3.00;;;;;19.65;45.65;99613.19;5076777;28;45492;-77
2023/10/22 09:10:25;;;;;;;;;2.00;1.00;;;;;19.84;45.81;99611.03;5076706;27;45460;-77
2023/10/22 09:12:51;;;;;;;;;9.67;8.67;;;;;20.01;46.05;99608.00;5077230;27;45303;-77
2023/10/22 09:15:17;;;;;;;;;0.67;0.67;;;;;20.15;45.83;99609.44;5077347;27;45342;-77
2023/10/22 09:17:43;;;;;;;;;0.67;0.00;;;;;20.30;45.66;99608.22;5076493;27;46156;-77
2023/10/22 09:20:21;;;;;;;;;1.33;1.33;;;;;20.49;44.98;99606.81;5076768;27;45482;-77
2023/10/22 09:22:48;;;;;;;;;1.00;1.00;;;;;20.67;44.39;99613.47;5077069;27;45489;-77
2023/10/22 09:25:16;;;;;;;;;0.00;0.00;;;;;20.76;42.55;99599.94;5076884;27;45722;-78
2023/10/22 09:27:42;;;;;;;;;1.00;0.33;;;;;20.96;40.64;99603.84;5076474;27;46339;-75
2023/10/22 09:30:08;;;;;;;;;1.00;0.00;;;;;21.11;40.27;99597.22;5076918;27;45375;-77
2023/10/22 09:32:33;;;;;;;;;0.00;0.00;;;;;21.07;40.45;99564.59;5076800;27;45532;-77
2023/10/22 09:35:25;;;;;;;;;6.00;5.33;;;;;21.44;40.18;99595.41;5077013;27;45509;-77
2023/10/22 09:37:51;;;;;;;;;1.00;1.00;;;;;21.31;39.03;99551.50;5074271;27;45446;-77
2023/10/22 09:40:22;;;;;;;;;1.67;1.33;;;;;21.64;39.49;99581.53;5076446;27;45269;-77
2023/10/22 09:42:49;;;;;;;;;0.00;0.00;;;;;21.83;38.02;99595.97;5076964;27;45475;-80
2023/10/22 09:45:17;;;;;;;;;1.00;1.00;;;;;21.81;38.47;99565.06;5076726;27;45551;-76
2023/10/22 09:47:45;;;;;;;;;5.00;4.67;;;;;22.07;37.14;99590.81;5076663;27;45393;-76
2023/10/22 09:50:14;;;;;;;;;4.00;4.00;;;;;22.14;38.78;99584.34;5076923;28;45526;-76
2023/10/22 09:52:42;;;;;;;;;1.00;0.00;;;;;22.37;37.35;99588.94;5076626;27;45369;-76
2023/10/22 09:55:13;;;;;;;;;0.33;0.00;;;;;22.20;36.02;99523.00;5076973;27;45460;-76
2023/10/22 09:57:39;;;;;;;;;0.00;0.00;;;;;22.54;36.26;99548.47;5076155;27;45524;-75
2023/10/22 10:00:10;;;;;;;;;1.00;0.00;;;;;22.83;36.56;99559.84;5076429;27;45402;-76
2023/10/22 10:02:37;;;;;;;;;0.00;0.00;;;;;23.09;35.82;99571.38;5076640;27;45524;-77
2023/10/22 10:05:03;;;;;;;;;1.00;1.00;;;;;23.26;34.78;99565.41;5076354;27;45485;-76
2023/10/22 10:07:31;;;;;;;;;0.00;0.00;;;;;23.45;35.55;99570.91;5076435;28;46536;-77
2023/10/22 10:09:57;;;;;;;;;1.00;1.00;;;;;23.67;36.21;99560.28;5076360;28;45329;-76
2023/10/22 10:12:25;;;;;;;;;1.00;1.00;;;;;23.92;35.74;99558.41;5075033;27;45545;-77
2023/10/22 10:14:51;;;;;;;;;0.00;0.00;;;;;23.77;34.36;99503.88;5075855;27;45241;-77
2023/10/22 10:17:18;;;;;;;;;0.33;0.00;;;;;24.21;35.00;99557.19;5075024;27;46278;-78
2023/10/22 10:19:45;;;;;;;;;0.00;0.00;;;;;24.43;34.99;99561.59;5075485;28;45390;-78
2023/10/22 10:22:40;;;;;;;;;3.00;1.33;;;;;24.50;34.06;99562.22;5078901;27;45387;-77
2023/10/22 10:25:31;;;;;;;;;1.00;1.00;;;;;24.47;33.71;99562.34;5078571;28;45514;-76
2023/10/22 10:28:05;;;;;;;;;0.33;0.33;;;;;24.63;34.09;99541.22;5076928;28;45300;-77
2023/10/22 10:30:32;;;;;;;;;1.00;1.00;;;;;24.88;33.20;99552.53;5076435;28;46623;-78
2023/10/22 10:32:58;;;;;;;;;1.33;1.33;;;;;24.77;33.46;99488.03;5078443;28;45616;-77
2023/10/22 10:35:25;;;;;;;;;2.00;1.00;;;;;25.24;34.38;99542.97;5079661;27;45594;-79
2023/10/22 10:38:15;;;;;;;;;0.33;0.33;;;;;25.42;33.06;99542.09;5079548;28;45521;-80
2023/10/22 10:40:44;;;;;;;;;2.00;2.00;;;;;25.50;31.98;99539.91;5080728;27;47915;-79
2023/10/22 10:43:10;;;;;;;;;0.00;0.00;;;;;25.52;30.75;99542.53;5087275;27;45408;-80
2023/10/22 10:45:41;;;;;;;;;1.67;1.00;;;;;25.30;31.65;99534.66;5090754;27;45436;-79
2023/10/22 10:48:26;;;;;;;;;0.00;0.00;;;;;25.34;32.57;99549.59;5089217;27;46062;-78
2023/10/22 10:51:30;;;;;;;;;0.00;0.00;;;;;25.48;32.22;99535.59;5088868;27;45475;-77
2023/10/22 10:54:14;;;;;;;;;0.00;0.00;;;;;25.45;31.65;99544.63;5091562;27;45445;-77
2023/10/22 10:56:55;;;;;;;;;1.00;0.00;;;;;25.26;30.92;99523.22;5097037;27;46133;-77
2023/10/22 10:59:34;;;;;;;;;0.00;0.00;;;;;25.33;30.90;99545.22;5091004;27;45429;-80
2023/10/22 11:02:02;;;;;;;;;0.00;0.00;;;;;25.18;31.31;99544.06;5095210;27;45370;-77
2023/10/22 11:04:31;;;;;;;;;0.00;0.00;;;;;25.00;31.31;99529.75;5088395;27;45480;-79
2023/10/22 11:06:58;;;;;;;;;1.00;1.00;;;;;24.96;31.65;99544.19;5088530;27;45554;-74
2023/10/22 11:09:24;;;;;;;;;2.67;1.33;;;;;24.84;32.01;99539.41;5084143;27;45463;-71
2023/10/22 11:12:03;;;;;;;;;0.00;0.00;;;;;24.85;31.56;99546.47;5089404;27;45372;-71
2023/10/22 11:14:30;;;;;;;;;0.00;0.00;;;;;24.71;32.26;99534.63;5096746;27;45356;-71
2023/10/22 11:16:59;;;;;;;;;0.33;0.33;;;;;24.77;32.13;99542.34;5097450;27;45424;-73
2023/10/22 11:19:26;;;;;;;;;0.33;0.33;;;;;24.73;32.22;99527.41;5095398;27;46980;-72
2023/10/22 11:21:56;;;;;;;;;3.00;2.00;;;;;24.74;32.39;99517.59;5091977;27;45436;-72
2023/10/22 11:24:26;;;;;;;;;0.00;0.00;;;;;24.39;31.99;99486.16;5094427;27;45354;-72
2023/10/22 11:26:52;;;;;;;;;0.00;0.00;;;;;24.64;32.18;99521.59;5095750;27;45836;-71
2023/10/22 11:29:18;;;;;;;;;0.00;0.00;;;;;24.71;31.94;99510.59;5090267;27;46146;-72
2023/10/22 11:31:58;;;;;;;;;0.00;0.00;;;;;24.66;31.18;99509.91;5087150;27;45336;-72
2023/10/22 11:34:25;;;;;;;;;1.33;1.33;;;;;24.53;32.32;99506.94;5086960;27;45595;-72